Terminal Aerodrome Forecast
Issued by NWS

Home | Current Version | Previous Version | Graphics & Text | Print | Product List | Glossary On
Versions: 1 2 3 4 5 6 7 8 9 10 11 12 13 14 15 16 17 18 19 20 21 22 23 24 25 26 27 28 29 30
000
FTUS42 KMHX 240400 AAB
TAFPGV
TAF AMD
KPGV 240421Z 2404/2424 00000KT 5SM -RA BR BKN003 OVC009
     FM240700 15005KT 2SM -RA BR OVC004
     FM241400 19012KT 3SM -RA BR BKN008
      AMD LTD TO CLD VIS AND WIND=

USA.gov is the U.S. government's official web portal to all federal, state and local government web resources and services.